Time;durP1;ratioP1;P1;durP2;ratioP2;P2;SDS_P1;SDS_P2;PMS_P1;PMS_P2;Temp;Humidity;BMP_temperature;BMP_pressure;BME280_temperature;BME280_humidity;BME280_pressure;Samples;Min_cycle;Max_cycle;Signal;HPM_P1;HPM_P2
2022/11/14 00:01:38;;;;;;;10.43;7.60;;;;;;;;;;5097123;28;20468;-71
2022/11/14 00:04:05;;;;;;;11.77;8.20;;;;;;;;;;5096985;28;21002;-71
2022/11/14 00:06:32;;;;;;;10.10;7.60;;;;;;;;;;5096593;28;20477;-71
2022/11/14 00:09:00;;;;;;;15.57;8.33;;;;;;;;;;5096882;28;20454;-71
2022/11/14 00:11:29;;;;;;;14.40;9.27;;;;;;;;;;5096560;28;20451;-71
2022/11/14 00:13:56;;;;;;;16.50;8.57;;;;;;;;;;5096679;28;20462;-71
2022/11/14 00:16:23;;;;;;;13.23;8.83;;;;;;;;;;5096674;28;20849;-71
2022/11/14 00:18:51;;;;;;;15.90;9.27;;;;;;;;;;5096429;28;20451;-71
2022/11/14 00:21:18;;;;;;;13.30;8.77;;;;;;;;;;5096856;28;20821;-71
2022/11/14 00:23:46;;;;;;;12.90;8.57;;;;;;;;;;5096294;28;20488;-71
2022/11/14 00:26:13;;;;;;;13.97;8.93;;;;;;;;;;5096546;28;20472;-71
2022/11/14 00:28:41;;;;;;;19.10;9.00;;;;;;;;;;5096594;28;20443;-71
2022/11/14 00:31:09;;;;;;;17.70;9.43;;;;;;;;;;5096195;28;20446;-71
2022/11/14 00:33:37;;;;;;;23.17;10.03;;;;;;;;;;5096185;28;20454;-71
2022/11/14 00:36:05;;;;;;;14.87;9.23;;;;;;;;;;5096022;28;20481;-71
2022/11/14 00:38:32;;;;;;;13.20;8.40;;;;;;;;;;5096572;28;20457;-71
2022/11/14 00:40:59;;;;;;;10.27;6.77;;;;;;;;;;5096367;28;20435;-71
2022/11/14 00:43:26;;;;;;;12.23;8.37;;;;;;;;;;5096476;28;20776;-71
2022/11/14 00:45:54;;;;;;;15.13;9.30;;;;;;;;;;5095793;28;20478;-71
2022/11/14 00:48:22;;;;;;;14.83;9.37;;;;;;;;;;5095750;28;20454;-71
2022/11/14 00:50:49;;;;;;;11.80;8.10;;;;;;;;;;5095808;28;20457;-71
2022/11/14 00:53:16;;;;;;;12.87;9.03;;;;;;;;;;5096107;28;20473;-71
2022/11/14 00:55:43;;;;;;;14.80;9.57;;;;;;;;;;5095991;28;20949;-71
2022/11/14 00:58:10;;;;;;;13.20;9.00;;;;;;;;;;5096005;28;20451;-71
2022/11/14 01:00:38;;;;;;;13.40;9.70;;;;;;;;;;5096102;28;20792;-71
2022/11/14 01:03:06;;;;;;;14.50;9.53;;;;;;;;;;5094961;28;20453;-71
2022/11/14 01:05:33;;;;;;;13.60;8.33;;;;;;;;;;5095370;28;20488;-71
2022/11/14 01:08:00;;;;;;;16.23;9.60;;;;;;;;;;5095797;28;20812;-71
2022/11/14 01:10:28;;;;;;;12.63;9.57;;;;;;;;;;5095503;28;20435;-71
2022/11/14 01:12:55;;;;;;;14.00;9.40;;;;;;;;;;5095437;28;20450;-71
2022/11/14 01:15:22;;;;;;;19.87;10.47;;;;;;;;;;5095350;28;20986;-71
2022/11/14 01:17:49;;;;;;;16.33;10.70;;;;;;;;;;5095537;28;20467;-71
2022/11/14 01:20:18;;;;;;;11.67;9.33;;;;;;;;;;5095575;28;20446;-71
2022/11/14 01:22:45;;;;;;;16.00;10.67;;;;;;;;;;5095508;28;20454;-71
2022/11/14 01:25:12;;;;;;;11.80;9.17;;;;;;;;;;5095390;28;20485;-70
2022/11/14 01:27:39;;;;;;;14.20;9.43;;;;;;;;;;5095423;28;20493;-71
2022/11/14 01:30:07;;;;;;;15.50;9.93;;;;;;;;;;5095055;28;20437;-71
2022/11/14 01:32:34;;;;;;;20.30;10.90;;;;;;;;;;5095078;28;20447;-71
2022/11/14 01:35:01;;;;;;;17.63;11.43;;;;;;;;;;5095518;28;20443;-71
2022/11/14 01:37:29;;;;;;;20.10;10.00;;;;;;;;;;5094895;28;20471;-71
2022/11/14 01:39:57;;;;;;;13.93;9.70;;;;;;;;;;5094945;28;20435;-71
2022/11/14 01:42:24;;;;;;;23.83;11.47;;;;;;;;;;5095203;28;20790;-71
2022/11/14 01:44:52;;;;;;;17.63;10.47;;;;;;;;;;5094943;28;20478;-71
2022/11/14 01:47:20;;;;;;;18.13;10.87;;;;;;;;;;5095051;28;20471;-71
2022/11/14 01:49:48;;;;;;;21.33;11.37;;;;;;;;;;5094959;28;20817;-71
2022/11/14 01:52:17;;;;;;;19.10;12.50;;;;;;;;;;5094945;28;20827;-71
2022/11/14 01:54:46;;;;;;;25.13;12.00;;;;;;;;;;5094580;28;20450;-71
2022/11/14 01:57:15;;;;;;;21.03;11.60;;;;;;;;;;5094717;28;20475;-71
2022/11/14 01:59:43;;;;;;;20.00;10.50;;;;;;;;;;5094825;28;20446;-71
2022/11/14 02:02:13;;;;;;;16.03;11.00;;;;;;;;;;5094762;28;20447;-71
2022/11/14 02:04:43;;;;;;;18.90;12.17;;;;;;;;;;5094368;28;20479;-71
2022/11/14 02:07:11;;;;;;;16.87;11.17;;;;;;;;;;5094571;28;20466;-71
2022/11/14 02:09:39;;;;;;;17.20;10.40;;;;;;;;;;5094459;28;20454;-71
2022/11/14 02:12:09;;;;;;;15.90;10.83;;;;;;;;;;5094613;28;20451;-71
2022/11/14 02:14:37;;;;;;;15.40;9.17;;;;;;;;;;5094173;28;20473;-71
2022/11/14 02:17:05;;;;;;;16.53;10.10;;;;;;;;;;5094079;28;20515;-71
2022/11/14 02:19:42;;;;;;;20.50;10.90;;;;;;;;;;5094456;28;20443;-71
2022/11/14 02:22:11;;;;;;;18.33;11.50;;;;;;;;;;5094359;28;20805;-71
2022/11/14 02:24:38;;;;;;;19.13;10.33;;;;;;;;;;5094296;28;20489;-71
2022/11/14 02:27:06;;;;;;;17.93;11.57;;;;;;;;;;5094205;28;20506;-71
2022/11/14 02:29:34;;;;;;;19.93;12.43;;;;;;;;;;5094273;28;20781;-70
2022/11/14 02:32:01;;;;;;;18.93;10.87;;;;;;;;;;5094269;28;20840;-70
2022/11/14 02:34:28;;;;;;;19.30;11.87;;;;;;;;;;5094186;28;20442;-70
2022/11/14 02:36:56;;;;;;;16.03;10.27;;;;;;;;;;5093958;28;20466;-70
2022/11/14 02:39:24;;;;;;;16.27;11.00;;;;;;;;;;5094937;28;20439;-70
2022/11/14 02:41:52;;;;;;;28.97;12.20;;;;;;;;;;5093779;28;20431;-71
2022/11/14 02:44:19;;;;;;;22.07;10.80;;;;;;;;;;5093915;28;20821;-71
2022/11/14 02:46:46;;;;;;;20.10;12.07;;;;;;;;;;5093578;28;20481;-71
2022/11/14 02:49:13;;;;;;;18.33;11.00;;;;;;;;;;5093861;28;20446;-70
2022/11/14 02:51:41;;;;;;;19.43;10.13;;;;;;;;;;5093894;28;20454;-72
2022/11/14 02:54:08;;;;;;;16.83;10.03;;;;;;;;;;5093798;28;20450;-71
2022/11/14 02:56:36;;;;;;;16.20;10.23;;;;;;;;;;5093365;28;20466;-71
2022/11/14 02:59:03;;;;;;;14.40;9.77;;;;;;;;;;5093747;28;20450;-71
2022/11/14 03:01:31;;;;;;;18.80;10.47;;;;;;;;;;5093720;28;20447;-71
2022/11/14 03:03:58;;;;;;;18.00;11.60;;;;;;;;;;5093824;28;20836;-71
2022/11/14 03:06:25;;;;;;;17.97;11.30;;;;;;;;;;5093746;28;20490;-71
2022/11/14 03:08:52;;;;;;;16.30;10.30;;;;;;;;;;5093581;28;20912;-71
2022/11/14 03:11:19;;;;;;;15.80;10.37;;;;;;;;;;5093549;28;20458;-71
2022/11/14 03:13:47;;;;;;;16.20;10.33;;;;;;;;;;5093360;28;20955;-71
2022/11/14 03:16:15;;;;;;;14.73;10.70;;;;;;;;;;5093154;28;20485;-71
2022/11/14 03:18:42;;;;;;;24.13;10.43;;;;;;;;;;5093192;28;20457;-71
2022/11/14 03:21:10;;;;;;;16.87;9.63;;;;;;;;;;5093402;28;20446;-71
2022/11/14 03:23:37;;;;;;;14.63;10.10;;;;;;;;;;5093727;28;20447;-71
2022/11/14 03:26:06;;;;;;;15.30;9.87;;;;;;;;;;5092748;28;20497;-71
2022/11/14 03:28:33;;;;;;;15.67;9.77;;;;;;;;;;5093343;28;20975;-71
2022/11/14 03:31:01;;;;;;;18.53;11.30;;;;;;;;;;5092972;28;20452;-71
2022/11/14 03:33:29;;;;;;;24.00;11.17;;;;;;;;;;5093294;28;20451;-71
2022/11/14 03:35:56;;;;;;;16.53;10.33;;;;;;;;;;5092877;28;20473;-71
2022/11/14 03:38:23;;;;;;;27.87;11.60;;;;;;;;;;5093193;28;20446;-71
2022/11/14 03:40:50;;;;;;;16.80;9.70;;;;;;;;;;5093180;28;20919;-71
2022/11/14 03:43:18;;;;;;;18.47;10.97;;;;;;;;;;5093165;28;20453;-71
2022/11/14 03:45:45;;;;;;;16.47;10.60;;;;;;;;;;5092671;28;20490;-71
2022/11/14 03:48:14;;;;;;;18.57;9.63;;;;;;;;;;5092816;28;20457;-71
2022/11/14 03:50:41;;;;;;;18.23;10.67;;;;;;;;;;5092872;28;20442;-70
2022/11/14 03:53:08;;;;;;;15.90;9.37;;;;;;;;;;5093092;28;20457;-71
2022/11/14 03:55:36;;;;;;;17.50;10.80;;;;;;;;;;5093030;28;20443;-71
2022/11/14 03:58:04;;;;;;;16.67;9.83;;;;;;;;;;5092719;28;20466;-71
2022/11/14 04:00:31;;;;;;;13.07;9.07;;;;;;;;;;5093138;28;20441;-71
2022/11/14 04:02:58;;;;;;;14.83;10.33;;;;;;;;;;5093006;28;20910;-71
2022/11/14 04:05:27;;;;;;;16.50;10.70;;;;;;;;;;5092896;28;20482;-71
2022/11/14 04:07:54;;;;;;;15.00;9.43;;;;;;;;;;5092941;28;20477;-71
2022/11/14 04:10:21;;;;;;;18.63;11.20;;;;;;;;;;5093082;28;20802;-71
2022/11/14 04:12:48;;;;;;;17.70;10.17;;;;;;;;;;5092548;28;20458;-71
2022/11/14 04:15:16;;;;;;;15.70;9.83;;;;;;;;;;5092732;28;20462;-71
2022/11/14 04:17:43;;;;;;;12.90;9.00;;;;;;;;;;5092431;28;20470;-71
2022/11/14 04:20:11;;;;;;;13.80;9.40;;;;;;;;;;5092862;28;20450;-71
2022/11/14 04:22:39;;;;;;;15.97;10.70;;;;;;;;;;5092521;28;20446;-71
2022/11/14 04:25:07;;;;;;;20.77;11.03;;;;;;;;;;5092981;28;20991;-71
2022/11/14 04:27:34;;;;;;;15.40;10.67;;;;;;;;;;5092706;28;20481;-71
2022/11/14 04:30:01;;;;;;;16.20;9.40;;;;;;;;;;5092443;28;20447;-71
2022/11/14 04:32:28;;;;;;;13.27;10.00;;;;;;;;;;5093032;28;20454;-71
2022/11/14 04:34:55;;;;;;;11.60;8.70;;;;;;;;;;5092784;28;20935;-71
2022/11/14 04:37:23;;;;;;;11.00;8.27;;;;;;;;;;5093402;28;20470;-71
2022/11/14 04:39:51;;;;;;;19.90;11.10;;;;;;;;;;5096096;28;20434;-71
2022/11/14 04:42:18;;;;;;;16.63;9.43;;;;;;;;;;5096047;28;20446;-71
2022/11/14 04:44:45;;;;;;;16.20;10.13;;;;;;;;;;5096247;28;20944;-71
2022/11/14 04:47:13;;;;;;;18.97;10.37;;;;;;;;;;5095933;28;20471;-71
2022/11/14 04:49:40;;;;;;;16.27;10.03;;;;;;;;;;5096214;28;20791;-71
2022/11/14 04:52:07;;;;;;;18.23;10.73;;;;;;;;;;5096153;28;20447;-71
2022/11/14 04:54:34;;;;;;;20.07;12.20;;;;;;;;;;5096115;28;20454;-71
2022/11/14 04:57:02;;;;;;;17.07;11.17;;;;;;;;;;5095973;28;20459;-71
2022/11/14 04:59:29;;;;;;;15.53;10.30;;;;;;;;;;5096013;28;20457;-71
2022/11/14 05:01:57;;;;;;;16.10;10.47;;;;;;;;;;5095728;28;20458;-71
2022/11/14 05:04:24;;;;;;;19.53;10.57;;;;;;;;;;5096007;28;20461;-71
2022/11/14 05:06:51;;;;;;;17.60;11.33;;;;;;;;;;5095696;28;20490;-71
2022/11/14 05:09:18;;;;;;;17.07;11.47;;;;;;;;;;5095576;28;20450;-71
2022/11/14 05:11:45;;;;;;;21.27;11.40;;;;;;;;;;5095433;28;20450;-71
2022/11/14 05:14:14;;;;;;;15.57;10.20;;;;;;;;;;5095460;28;20863;-71
2022/11/14 05:16:41;;;;;;;22.40;10.80;;;;;;;;;;5095658;28;20469;-71
2022/11/14 05:19:08;;;;;;;17.13;11.07;;;;;;;;;;5095571;28;20442;-71
2022/11/14 05:21:35;;;;;;;20.10;11.77;;;;;;;;;;5095521;28;20817;-71
2022/11/14 05:24:02;;;;;;;20.53;11.43;;;;;;;;;;5095519;28;20823;-71
2022/11/14 05:26:29;;;;;;;17.50;10.43;;;;;;;;;;5095054;28;20490;-71
2022/11/14 05:28:56;;;;;;;20.60;12.67;;;;;;;;;;5095542;28;20435;-71
2022/11/14 05:31:25;;;;;;;18.93;11.60;;;;;;;;;;5095416;28;20936;-71
2022/11/14 05:33:52;;;;;;;18.67;11.43;;;;;;;;;;5095192;28;20455;-71
2022/11/14 05:36:19;;;;;;;21.43;12.50;;;;;;;;;;5095235;28;20562;-71
2022/11/14 05:38:46;;;;;;;24.20;12.87;;;;;;;;;;5094978;28;20465;-71
2022/11/14 05:41:14;;;;;;;22.43;13.20;;;;;;;;;;5094954;28;20439;-71
2022/11/14 05:43:41;;;;;;;21.60;13.53;;;;;;;;;;5095173;28;20921;-71
2022/11/14 05:46:10;;;;;;;22.00;14.40;;;;;;;;;;5094908;28;20852;-71
2022/11/14 05:48:39;;;;;;;21.30;12.50;;;;;;;;;;5094341;28;20457;-71
2022/11/14 05:51:07;;;;;;;20.43;12.57;;;;;;;;;;5094921;28;20450;-71
2022/11/14 05:53:34;;;;;;;21.87;13.00;;;;;;;;;;5094621;28;20443;-71
2022/11/14 05:56:02;;;;;;;17.83;10.97;;;;;;;;;;5094718;28;20464;-71
2022/11/14 05:58:29;;;;;;;16.53;11.30;;;;;;;;;;5094534;28;20453;-71
2022/11/14 06:01:02;;;;;;;21.10;11.37;;;;;;;;;;5094737;28;20455;-72
2022/11/14 06:03:31;;;;;;;20.50;12.27;;;;;;;;;;5094432;28;20476;-71
2022/11/14 06:06:00;;;;;;;21.40;12.40;;;;;;;;;;5093942;28;20494;-71
2022/11/14 06:08:28;;;;;;;22.47;13.63;;;;;;;;;;5094436;28;20462;-71
2022/11/14 06:10:55;;;;;;;21.77;12.37;;;;;;;;;;5094575;28;20900;-71
2022/11/14 06:13:23;;;;;;;17.20;10.20;;;;;;;;;;5094085;28;20441;-71
2022/11/14 06:15:50;;;;;;;19.63;11.67;;;;;;;;;;5094543;28;20493;-71
2022/11/14 06:18:18;;;;;;;21.90;11.40;;;;;;;;;;5094102;28;20453;-71
2022/11/14 06:20:45;;;;;;;18.10;11.60;;;;;;;;;;5094091;28;20583;-71
2022/11/14 06:23:13;;;;;;;24.57;12.47;;;;;;;;;;5094012;28;20489;-71
2022/11/14 06:25:41;;;;;;;17.73;10.33;;;;;;;;;;5093815;28;20505;-71
2022/11/14 06:28:08;;;;;;;22.77;11.43;;;;;;;;;;5094259;28;20431;-71
2022/11/14 06:30:35;;;;;;;22.93;11.40;;;;;;;;;;5094328;28;20872;-71
2022/11/14 06:33:02;;;;;;;29.10;11.47;;;;;;;;;;5093875;28;20455;-71
2022/11/14 06:35:31;;;;;;;19.63;10.80;;;;;;;;;;5094100;28;20449;-71
2022/11/14 06:38:00;;;;;;;17.77;11.10;;;;;;;;;;5094139;28;20457;-71
2022/11/14 06:40:28;;;;;;;19.87;11.90;;;;;;;;;;5094119;28;20440;-71
2022/11/14 06:42:56;;;;;;;18.03;11.57;;;;;;;;;;5094048;28;20434;-71
2022/11/14 06:45:23;;;;;;;20.27;12.37;;;;;;;;;;5093904;28;20449;-71
2022/11/14 06:47:50;;;;;;;20.90;10.90;;;;;;;;;;5093568;28;20996;-71
2022/11/14 06:50:17;;;;;;;18.63;10.70;;;;;;;;;;5094018;28;20435;-71
2022/11/14 06:52:44;;;;;;;23.73;11.50;;;;;;;;;;5093844;28;20554;-71
2022/11/14 06:55:11;;;;;;;21.97;13.10;;;;;;;;;;5089817;28;20450;-71
2022/11/14 06:57:40;;;;;;;21.73;11.90;;;;;;;;;;5091942;28;20463;-71
2022/11/14 07:00:08;;;;;;;20.63;12.23;;;;;;;;;;5091701;28;20948;-71
2022/11/14 07:02:35;;;;;;;22.07;11.50;;;;;;;;;;5092121;28;20450;-71
2022/11/14 07:05:02;;;;;;;24.33;12.47;;;;;;;;;;5092407;28;20450;-71
2022/11/14 07:07:29;;;;;;;20.03;13.07;;;;;;;;;;5092052;28;20979;-71
2022/11/14 07:09:57;;;;;;;22.17;12.93;;;;;;;;;;5091684;28;20470;-71
2022/11/14 07:12:25;;;;;;;16.93;10.10;;;;;;;;;;5092338;28;20493;-71
2022/11/14 07:14:53;;;;;;;17.67;11.83;;;;;;;;;;5091798;28;20514;-71
2022/11/14 07:17:20;;;;;;;18.00;12.13;;;;;;;;;;5092142;28;20467;-71
2022/11/14 07:19:47;;;;;;;18.47;12.67;;;;;;;;;;5092131;28;20796;-71
2022/11/14 07:22:15;;;;;;;21.17;12.87;;;;;;;;;;5092158;28;20455;-71
2022/11/14 07:24:42;;;;;;;22.17;14.20;;;;;;;;;;5092114;28;20463;-71
2022/11/14 07:27:10;;;;;;;19.70;12.87;;;;;;;;;;5091581;28;20490;-71
2022/11/14 07:29:37;;;;;;;21.13;12.60;;;;;;;;;;5091918;28;20435;-71
2022/11/14 07:32:06;;;;;;;23.23;13.10;;;;;;;;;;5092213;28;20451;-71
2022/11/14 07:34:33;;;;;;;19.87;12.60;;;;;;;;;;5092056;28;20450;-71
2022/11/14 07:37:00;;;;;;;23.70;12.10;;;;;;;;;;5091488;28;20466;-71
2022/11/14 07:39:28;;;;;;;20.87;11.37;;;;;;;;;;5091850;28;20443;-71
2022/11/14 07:41:55;;;;;;;15.17;10.33;;;;;;;;;;5091800;28;20431;-71
2022/11/14 07:44:22;;;;;;;14.47;10.10;;;;;;;;;;5091839;28;20974;-71
2022/11/14 07:46:50;;;;;;;16.83;11.07;;;;;;;;;;5091411;28;20531;-71
2022/11/14 07:49:19;;;;;;;20.20;10.63;;;;;;;;;;5091824;28;20461;-71
2022/11/14 07:51:46;;;;;;;13.43;8.53;;;;;;;;;;5091508;28;20451;-71
2022/11/14 07:54:13;;;;;;;19.17;8.87;;;;;;;;;;5091842;28;20451;-71
2022/11/14 07:56:40;;;;;;;12.87;8.30;;;;;;;;;;5091830;28;20901;-71
2022/11/14 07:59:08;;;;;;;10.90;8.20;;;;;;;;;;5091969;28;20431;-71
2022/11/14 08:01:35;;;;;;;10.67;7.40;;;;;;;;;;5091847;28;20818;-71
2022/11/14 08:04:02;;;;;;;12.30;7.77;;;;;;;;;;5092678;28;20453;-71
2022/11/14 08:06:30;;;;;;;14.10;7.60;;;;;;;;;;5092699;28;20490;-71
2022/11/14 08:08:57;;;;;;;9.20;7.40;;;;;;;;;;5092753;28;20450;-71
2022/11/14 08:14:06;;;;;;;11.47;7.67;;;;;;;;;;5096174;28;20530;-71
2022/11/14 08:16:33;;;;;;;11.90;7.40;;;;;;;;;;5096588;28;20899;-71
2022/11/14 08:19:00;;;;;;;12.80;8.07;;;;;;;;;;5096803;28;20446;-71
2022/11/14 08:21:27;;;;;;;14.70;8.17;;;;;;;;;;5096722;28;20950;-71
2022/11/14 08:23:55;;;;;;;8.90;6.90;;;;;;;;;;5096649;28;20443;-71
2022/11/14 08:26:23;;;;;;;8.53;5.97;;;;;;;;;;5096511;28;20498;-71
2022/11/14 08:28:53;;;;;;;7.97;6.00;;;;;;;;;;5096572;28;20453;-71
2022/11/14 08:31:21;;;;;;;7.77;5.97;;;;;;;;;;5096641;28;20435;-71
2022/11/14 08:33:49;;;;;;;9.60;6.00;;;;;;;;;;5096229;28;20441;-71
2022/11/14 08:36:16;;;;;;;9.70;7.50;;;;;;;;;;5096510;28;20470;-71
2022/11/14 08:38:43;;;;;;;10.20;6.63;;;;;;;;;;5096482;28;21031;-71
2022/11/14 08:41:12;;;;;;;9.03;6.40;;;;;;;;;;5096066;28;20439;-71
2022/11/14 08:43:39;;;;;;;7.93;5.53;;;;;;;;;;5095780;28;20450;-71
2022/11/14 08:46:06;;;;;;;11.57;7.63;;;;;;;;;;5096108;28;20470;-71
2022/11/14 08:48:33;;;;;;;9.07;6.83;;;;;;;;;;5095838;28;20475;-71
2022/11/14 08:51:03;;;;;;;10.03;6.63;;;;;;;;;;5096176;28;20451;-71
2022/11/14 08:53:30;;;;;;;6.77;5.17;;;;;;;;;;5096127;28;20447;-72
2022/11/14 08:55:57;;;;;;;9.03;6.27;;;;;;;;;;5095948;28;20478;-71
2022/11/14 08:58:27;;;;;;;9.93;6.50;;;;;;;;;;5095788;28;20451;-71
2022/11/14 09:00:54;;;;;;;8.60;6.00;;;;;;;;;;5096080;28;20454;-71
2022/11/14 09:03:22;;;;;;;8.90;6.07;;;;;;;;;;5095648;28;20451;-71
2022/11/14 09:05:51;;;;;;;10.13;5.83;;;;;;;;;;5095905;28;20457;-71
2022/11/14 09:08:19;;;;;;;7.20;6.00;;;;;;;;;;5095481;28;20486;-71
2022/11/14 09:10:46;;;;;;;6.73;5.00;;;;;;;;;;5096077;28;20454;-71
2022/11/14 09:13:13;;;;;;;6.37;5.73;;;;;;;;;;5095343;28;20492;-71
2022/11/14 09:15:42;;;;;;;8.83;6.30;;;;;;;;;;5095382;28;20438;-71
2022/11/14 09:18:09;;;;;;;6.97;5.60;;;;;;;;;;5095448;28;20452;-71
2022/11/14 09:20:37;;;;;;;6.83;6.13;;;;;;;;;;5095561;28;20451;-72
2022/11/14 09:23:04;;;;;;;6.40;5.67;;;;;;;;;;5094910;28;20458;-72
2022/11/14 09:25:32;;;;;;;7.73;6.03;;;;;;;;;;5095561;28;20451;-72
2022/11/14 09:27:59;;;;;;;6.47;5.00;;;;;;;;;;5095748;28;20574;-72
2022/11/14 09:30:26;;;;;;;6.73;5.30;;;;;;;;;;5095484;28;20936;-72
2022/11/14 09:32:59;;;;;;;6.93;5.27;;;;;;;;;;5095264;28;20458;-71
2022/11/14 09:35:26;;;;;;;6.20;5.30;;;;;;;;;;5095422;28;20442;-71
2022/11/14 09:38:00;;;;;;;10.43;6.30;;;;;;;;;;5095375;28;20911;-71
2022/11/14 09:40:27;;;;;;;9.83;5.87;;;;;;;;;;5095587;28;20443;-71
2022/11/14 09:43:06;;;;;;;9.03;5.77;;;;;;;;;;5094937;28;20457;-71
2022/11/14 09:45:34;;;;;;;10.60;7.47;;;;;;;;;;5095110;28;20435;-71
2022/11/14 09:48:05;;;;;;;9.83;5.93;;;;;;;;;;5095013;28;20493;-72
2022/11/14 09:50:34;;;;;;;9.80;6.90;;;;;;;;;;5094801;28;20439;-72
2022/11/14 09:53:03;;;;;;;11.57;7.00;;;;;;;;;;5094926;28;20962;-72
2022/11/14 09:55:31;;;;;;;8.07;6.47;;;;;;;;;;5094542;28;20454;-72
2022/11/14 09:57:59;;;;;;;10.90;7.17;;;;;;;;;;5094698;28;20457;-72
2022/11/14 10:00:28;;;;;;;9.43;6.80;;;;;;;;;;5094627;28;20924;-72
2022/11/14 10:03:01;;;;;;;11.70;7.00;;;;;;;;;;5094521;28;20461;-72
2022/11/14 10:05:43;;;;;;;13.37;7.50;;;;;;;;;;5094864;28;20896;-71
2022/11/14 10:08:28;;;;;;;9.73;6.80;;;;;;;;;;5094896;28;20504;-71
2022/11/14 10:10:56;;;;;;;12.43;7.33;;;;;;;;;;5094461;28;20973;-71
2022/11/14 10:13:39;;;;;;;10.40;7.03;;;;;;;;;;5094513;28;20950;-71
2022/11/14 10:16:11;;;;;;;9.40;6.73;;;;;;;;;;5094232;28;20541;-71
2022/11/14 10:18:47;;;;;;;10.10;6.93;;;;;;;;;;5094562;28;20794;-71
2022/11/14 10:21:31;;;;;;;11.07;8.10;;;;;;;;;;5094639;28;20437;-71
2022/11/14 10:24:02;;;;;;;12.53;7.80;;;;;;;;;;5094143;28;20919;-71
2022/11/14 10:26:31;;;;;;;11.47;8.03;;;;;;;;;;5094029;28;20470;-71
2022/11/14 10:29:07;;;;;;;11.63;8.47;;;;;;;;;;5094424;28;20458;-71
2022/11/14 10:31:42;;;;;;;11.27;8.50;;;;;;;;;;5094244;28;20438;-71
2022/11/14 10:34:12;;;;;;;16.57;9.17;;;;;;;;;;5093989;28;20900;-71
2022/11/14 10:36:50;;;;;;;13.50;8.93;;;;;;;;;;5093091;28;20470;-71
2022/11/14 10:39:19;;;;;;;12.73;8.80;;;;;;;;;;5094235;28;20431;-71
2022/11/14 10:41:47;;;;;;;13.80;9.10;;;;;;;;;;5093809;28;20431;-71
2022/11/14 10:44:17;;;;;;;12.53;7.37;;;;;;;;;;5094082;28;20441;-71
2022/11/14 10:46:47;;;;;;;14.33;8.40;;;;;;;;;;5093956;28;20469;-71
2022/11/14 10:49:16;;;;;;;13.13;9.10;;;;;;;;;;5094019;28;20795;-71
2022/11/14 10:51:45;;;;;;;10.40;8.03;;;;;;;;;;5094104;28;20944;-71
2022/11/14 10:54:18;;;;;;;17.27;9.97;;;;;;;;;;5093959;28;20447;-72
2022/11/14 10:56:48;;;;;;;13.87;9.20;;;;;;;;;;5093799;28;21010;-72
2022/11/14 10:59:16;;;;;;;11.47;8.60;;;;;;;;;;5093558;28;20460;-72
2022/11/14 11:01:43;;;;;;;19.40;9.13;;;;;;;;;;5093746;28;20936;-72
2022/11/14 11:04:15;;;;;;;13.07;9.50;;;;;;;;;;5093737;28;20931;-72
2022/11/14 11:06:42;;;;;;;11.77;9.00;;;;;;;;;;5093671;28;20489;-73
2022/11/14 11:11:57;;;;;;;14.10;9.20;;;;;;;;;;5093446;28;20402;-72
2022/11/14 11:14:25;;;;;;;15.63;8.50;;;;;;;;;;5093533;28;20821;-72
2022/11/14 11:17:07;;;;;;;12.03;8.90;;;;;;;;;;5093207;28;20477;-72
2022/11/14 11:19:34;;;;;;;11.93;8.93;;;;;;;;;;5093249;28;20430;-72
2022/11/14 11:22:01;;;;;;;14.40;8.80;;;;;;;;;;5093380;28;20453;-72
2022/11/14 11:24:32;;;;;;;12.23;9.40;;;;;;;;;;5093185;28;20427;-72
2022/11/14 11:27:22;;;;;;;12.43;9.17;;;;;;;;;;5093290;28;20494;-73
2022/11/14 11:30:02;;;;;;;10.67;8.90;;;;;;;;;;5093435;28;20796;-72
2022/11/14 11:32:29;;;;;;;15.83;10.30;;;;;;;;;;5092924;28;20462;-72
2022/11/14 11:34:58;;;;;;;12.90;8.37;;;;;;;;;;5093330;28;20447;-72
2022/11/14 11:37:26;;;;;;;12.20;9.80;;;;;;;;;;5092878;28;20502;-72
2022/11/14 11:39:55;;;;;;;13.40;9.73;;;;;;;;;;5092140;28;20445;-72
2022/11/14 11:42:26;;;;;;;10.60;7.77;;;;;;;;;;5092884;28;20438;-72
2022/11/14 11:44:57;;;;;;;12.23;8.70;;;;;;;;;;5093227;28;20442;-72
2022/11/14 11:47:26;;;;;;;10.60;8.10;;;;;;;;;;5095441;28;20493;-73
2022/11/14 11:49:53;;;;;;;12.87;9.70;;;;;;;;;;5097424;28;20427;-72
2022/11/14 11:52:24;;;;;;;17.30;9.00;;;;;;;;;;5097284;28;20450;-72
2022/11/14 11:54:54;;;;;;;13.90;10.00;;;;;;;;;;5097090;28;20437;-72
2022/11/14 11:57:25;;;;;;;14.07;9.57;;;;;;;;;;5097064;28;20466;-72
2022/11/14 11:59:57;;;;;;;14.73;9.50;;;;;;;;;;5097527;28;20439;-71
2022/11/14 12:02:25;;;;;;;14.57;9.37;;;;;;;;;;5097285;28;20446;-72
2022/11/14 12:04:54;;;;;;;12.90;9.20;;;;;;;;;;5097236;28;20434;-72
2022/11/14 12:07:22;;;;;;;9.43;7.90;;;;;;;;;;5096999;28;20858;-73
2022/11/14 12:09:51;;;;;;;10.17;8.50;;;;;;;;;;5097068;28;20458;-72
2022/11/14 12:12:23;;;;;;;13.83;9.23;;;;;;;;;;5097126;28;20450;-72
2022/11/14 12:14:55;;;;;;;11.47;9.20;;;;;;;;;;5096714;28;20459;-71
2022/11/14 12:17:34;;;;;;;10.80;8.63;;;;;;;;;;5096927;28;20470;-72
2022/11/14 12:20:07;;;;;;;12.20;8.83;;;;;;;;;;5096508;28;20454;-71
2022/11/14 12:22:54;;;;;;;9.20;7.20;;;;;;;;;;5096665;28;20457;-71
2022/11/14 12:25:36;;;;;;;10.93;7.40;;;;;;;;;;5096769;28;20434;-71
2022/11/14 12:28:09;;;;;;;7.67;6.67;;;;;;;;;;5096371;28;20482;-71
2022/11/14 12:30:38;;;;;;;10.43;6.83;;;;;;;;;;5096625;28;20449;-72
2022/11/14 12:33:09;;;;;;;8.70;6.67;;;;;;;;;;5096660;28;20461;-72
2022/11/14 12:35:38;;;;;;;8.43;7.43;;;;;;;;;;5096210;28;20470;-72
2022/11/14 12:38:06;;;;;;;9.50;6.70;;;;;;;;;;5096459;28;20530;-72
2022/11/14 12:40:34;;;;;;;9.93;6.70;;;;;;;;;;5096020;28;20430;-73
2022/11/14 12:43:02;;;;;;;7.90;6.87;;;;;;;;;;5096476;28;20458;-72
2022/11/14 12:45:47;;;;;;;7.33;5.60;;;;;;;;;;5096634;28;20453;-72
2022/11/14 12:48:21;;;;;;;8.27;6.57;;;;;;;;;;5096295;28;20482;-73
2022/11/14 12:50:48;;;;;;;7.37;5.53;;;;;;;;;;5096302;28;20841;-72
2022/11/14 12:53:35;;;;;;;7.13;5.50;;;;;;;;;;5095503;28;20979;-72
2022/11/14 12:56:16;;;;;;;8.50;5.73;;;;;;;;;;5095710;28;20784;-72
2022/11/14 12:59:02;;;;;;;6.90;6.03;;;;;;;;;;5094328;28;20433;-72
2022/11/14 13:01:37;;;;;;;9.70;7.20;;;;;;;;;;5085810;28;20459;-72
2022/11/14 13:04:13;;;;;;;9.43;6.70;;;;;;;;;;5095725;28;20435;-72
2022/11/14 13:06:45;;;;;;;8.80;6.37;;;;;;;;;;5095974;28;20488;-72
2022/11/14 13:09:27;;;;;;;15.90;11.33;;;;;;;;;;5095844;28;20550;-72
2022/11/14 13:23:43;;;;;;;8.20;6.10;;;;;;;;;;5095737;28;20409;-73
2022/11/14 13:26:29;;;;;;;9.10;6.27;;;;;;;;;;5095353;28;20485;-72
2022/11/14 13:28:58;;;;;;;8.50;5.67;;;;;;;;;;5095674;28;20852;-72
2022/11/14 13:31:42;;;;;;;6.93;5.20;;;;;;;;;;5095015;28;20459;-72
2022/11/14 13:34:28;;;;;;;13.57;7.23;;;;;;;;;;5095540;28;20427;-72
2022/11/14 13:36:58;;;;;;;7.20;5.80;;;;;;;;;;5095433;28;21062;-72
2022/11/14 13:39:29;;;;;;;6.07;5.40;;;;;;;;;;5095363;28;20875;-72
2022/11/14 13:42:12;;;;;;;8.93;5.57;;;;;;;;;;5094996;28;20530;-73
2022/11/14 13:44:54;;;;;;;9.13;6.40;;;;;;;;;;5095175;28;20936;-72
2022/11/14 13:47:42;;;;;;;9.13;5.63;;;;;;;;;;5095082;28;20987;-73
2022/11/14 13:50:11;;;;;;;7.03;5.77;;;;;;;;;;5069219;28;20458;-72
2022/11/14 13:52:41;;;;;;;6.73;5.37;;;;;;;;;;5095216;28;20971;-72
2022/11/14 13:55:08;;;;;;;9.77;7.17;;;;;;;;;;5095117;28;20961;-72
2022/11/14 13:57:42;;;;;;;8.20;5.63;;;;;;;;;;5094976;28;20565;-72
2022/11/14 14:00:12;;;;;;;42.40;27.83;;;;;;;;;;5094854;28;20824;-72
2022/11/14 14:02:47;;;;;;;9.93;5.70;;;;;;;;;;5094891;28;20454;-72
2022/11/14 14:05:21;;;;;;;8.47;5.50;;;;;;;;;;5094814;28;20431;-73
2022/11/14 14:08:03;;;;;;;8.07;6.67;;;;;;;;;;5094532;28;20492;-71
2022/11/14 14:10:35;;;;;;;10.47;6.80;;;;;;;;;;5091911;28;20458;-71
2022/11/14 14:13:15;;;;;;;9.20;6.73;;;;;;;;;;5094434;28;20427;-73
2022/11/14 14:15:45;;;;;;;12.50;9.23;;;;;;;;;;5094287;28;20435;-73
2022/11/14 14:18:19;;;;;;;9.80;6.77;;;;;;;;;;5094269;28;20450;-73
2022/11/14 14:20:49;;;;;;;17.13;6.10;;;;;;;;;;5094597;28;20435;-74
2022/11/14 14:23:25;;;;;;;14.90;7.50;;;;;;;;;;5094304;28;20469;-74
2022/11/14 14:25:59;;;;;;;9.10;6.20;;;;;;;;;;5094140;28;20462;-74
2022/11/14 14:28:34;;;;;;;12.20;7.20;;;;;;;;;;5094213;28;20501;-71
2022/11/14 14:31:02;;;;;;;8.80;6.50;;;;;;;;;;5094263;28;20431;-73
2022/11/14 14:33:32;;;;;;;8.87;6.40;;;;;;;;;;5094285;28;20450;-73
2022/11/14 14:36:00;;;;;;;21.63;6.87;;;;;;;;;;5094143;28;20478;-73
2022/11/14 14:38:28;;;;;;;8.80;6.03;;;;;;;;;;5094221;28;20451;-73
2022/11/14 14:40:56;;;;;;;9.90;5.27;;;;;;;;;;5093722;28;20469;-73
2022/11/14 14:43:25;;;;;;;8.10;5.90;;;;;;;;;;5094149;28;20818;-73
2022/11/14 14:45:53;;;;;;;16.50;5.93;;;;;;;;;;5094150;28;20471;-73
2022/11/14 14:48:24;;;;;;;10.47;6.90;;;;;;;;;;5093631;28;20466;-73
2022/11/14 14:50:53;;;;;;;9.17;5.97;;;;;;;;;;5094295;28;20946;-71
2022/11/14 14:53:22;;;;;;;8.30;6.80;;;;;;;;;;5094019;28;20916;-72
2022/11/14 14:55:53;;;;;;;8.63;6.53;;;;;;;;;;5093562;28;20450;-71
2022/11/14 14:58:25;;;;;;;11.10;7.77;;;;;;;;;;5093806;28;20435;-71